Lowpoint, Illinois
Current Conditions -  °F | °C
As of 8:15 AM on Thursday 18 Dec 2014 (Local Time) from KC75 Reporting Station
Haze Haze  
Wind Chill: 18°   Ceiling: Unl
Heat Index: 18°   Visibility: 5mi
Dew Point: 16°   Wind: 0mph
Humidity: 91%   Direction: NA
Pressure: 30.32"   Gusts: NA
Location:  40.87°N, 89.35°W
Report Text: KC75 181415Z AUTO 00000KT 5SM BR CLR M08/M09 A3032 RMK AO2 T10761089
Loading
Personal Weather Stations






























Interactive Weather Map New forecast layout! Learn more

10-Day Weather Forecast

Advertisements
Track Severe Weather on mobile